Time;durP1;ratioP1;P1;durP2;ratioP2;P2;SDS_P1;SDS_P2;PMS_P1;PMS_P2;Temp;Humidity;BMP_temperature;BMP_pressure;BME280_temperature;BME280_humidity;BME280_pressure;Samples;Min_cycle;Max_cycle;Signal;HPM_P1;HPM_P2
2023/06/06 00:01:23;;;;;;;0.20;0.20;;;;;;;19.68;50.48;102276.13;5041097;28;20021;-64
2023/06/06 00:03:51;;;;;;;0.20;0.20;;;;;;;20.26;48.96;102281.88;5039023;28;20017;-64
2023/06/06 00:06:20;;;;;;;0.10;0.10;;;;;;;19.23;51.72;102282.50;5037155;28;20548;-63
2023/06/06 00:08:50;;;;;;;0.10;0.10;;;;;;;19.38;51.27;102273.75;5040149;28;20038;-64
2023/06/06 00:11:16;;;;;;;0.10;0.10;;;;;;;19.40;51.46;102277.06;5021045;28;20485;-63
2023/06/06 00:13:42;;;;;;;0.20;0.20;;;;;;;19.92;49.11;102286.59;5039477;28;20045;-65
2023/06/06 00:16:08;;;;;;;0.10;0.10;;;;;;;18.88;52.53;102279.16;5040487;28;20042;-66
2023/06/06 00:18:34;;;;;;;0.20;0.20;;;;;;;18.50;54.48;102291.75;5037973;28;20384;-64
2023/06/06 00:20:59;;;;;;;0.10;0.10;;;;;;;19.49;51.60;102282.94;5039253;28;20044;-65
2023/06/06 00:23:25;;;;;;;0.20;0.20;;;;;;;19.47;51.28;102279.63;5039994;28;20033;-64
2023/06/06 00:25:52;;;;;;;0.10;0.10;;;;;;;19.79;49.99;102272.50;5038043;28;20029;-64
2023/06/06 00:28:17;;;;;;;0.20;0.20;;;;;;;19.67;50.67;102275.34;4999226;28;1198176;-65
2023/06/06 00:30:43;;;;;;;0.20;0.20;;;;;;;18.72;53.25;102277.22;5041365;28;20584;-62
2023/06/06 00:33:08;;;;;;;0.10;0.10;;;;;;;19.35;51.65;102273.44;5039578;28;20029;-63
2023/06/06 00:35:34;;;;;;;0.20;0.20;;;;;;;18.79;53.04;102277.91;5041006;28;20028;-64
2023/06/06 00:38:00;;;;;;;0.10;0.10;;;;;;;19.74;50.47;102273.22;5038998;28;20037;-64
2023/06/06 00:40:26;;;;;;;0.10;0.10;;;;;;;19.79;50.25;102269.75;5043040;28;20137;-65
2023/06/06 00:42:51;;;;;;;0.10;0.10;;;;;;;19.43;51.07;102273.03;5040978;28;20029;-65
2023/06/06 00:45:17;;;;;;;0.15;0.15;;;;;;;19.13;51.97;102276.03;5039524;28;20029;-66
2023/06/06 00:47:43;;;;;;;0.10;0.10;;;;;;;18.98;52.45;102273.91;5039667;28;20040;-65
2023/06/06 00:50:12;;;;;;;0.13;0.13;;;;;;;19.73;50.33;102268.03;5039944;28;20666;-64
2023/06/06 00:52:38;;;;;;;0.20;0.20;;;;;;;19.64;50.42;102273.09;5038009;28;20018;-64
2023/06/06 00:55:05;;;;;;;0.20;0.20;;;;;;;19.97;49.30;102267.56;5039507;28;20017;-64
2023/06/06 00:57:31;;;;;;;0.10;0.10;;;;;;;19.28;51.52;102274.41;5039581;28;20152;-66
2023/06/06 00:59:57;;;;;;;0.20;0.20;;;;;;;19.67;49.82;102266.31;5039305;28;20033;-64
2023/06/06 01:02:24;;;;;;;0.13;0.13;;;;;;;19.54;50.66;102274.81;5066595;28;20382;-63
2023/06/06 01:04:50;;;;;;;0.20;0.20;;;;;;;19.29;51.50;102273.34;5051682;28;20040;-64
2023/06/06 01:07:17;;;;;;;0.20;0.20;;;;;;;18.84;52.62;102267.09;5052026;28;20017;-66
2023/06/06 01:09:44;;;;;;;0.10;0.10;;;;;;;19.47;50.76;102269.56;5066144;28;20036;-64
2023/06/06 01:12:21;;;;;;;0.10;0.10;;;;;;;18.36;54.67;102272.13;5060560;28;20016;-65
2023/06/06 01:15:06;;;;;;;0.10;0.10;;;;;;;19.23;51.39;102263.44;5057338;28;20098;-65
2023/06/06 01:17:33;;;;;;;0.20;0.20;;;;;;;18.62;53.52;102260.69;5039175;28;20215;-64
2023/06/06 01:20:00;;;;;;;0.10;0.10;;;;;;;19.24;52.28;102265.06;5063539;28;20376;-65
2023/06/06 01:22:28;;;;;;;0.10;0.10;;;;;;;18.66;53.95;102267.31;5062508;28;20104;-65
2023/06/06 01:24:56;;;;;;;0.13;0.13;;;;;;;18.51;54.27;102267.03;5056536;28;20451;-64
2023/06/06 01:27:22;;;;;;;0.20;0.20;;;;;;;18.88;53.22;102253.81;5067128;28;20053;-64
2023/06/06 01:29:48;;;;;;;0.20;0.20;;;;;;;19.29;51.62;102262.44;5051451;28;20501;-66
2023/06/06 01:32:22;;;;;;;0.10;0.10;;;;;;;18.95;52.69;102257.19;5033410;28;20021;-65
2023/06/06 01:34:58;;;;;;;0.20;0.20;;;;;;;19.14;52.34;102251.25;5066406;28;20102;-64
2023/06/06 01:37:45;;;;;;;0.10;0.10;;;;;;;19.20;52.16;102253.00;5055435;28;20032;-65
2023/06/06 01:40:13;;;;;;;0.10;0.10;;;;;;;19.06;52.08;102259.03;5064311;28;20498;-63
2023/06/06 01:42:44;;;;;;;0.10;0.10;;;;;;;19.62;50.35;102255.31;5058986;28;20040;-64
2023/06/06 01:45:11;;;;;;;0.20;0.20;;;;;;;18.77;52.81;102249.28;5068336;28;20028;-64
2023/06/06 01:47:38;;;;;;;0.20;0.20;;;;;;;18.76;53.26;102251.16;5056559;28;20792;-65
2023/06/06 01:50:07;;;;;;;0.20;0.20;;;;;;;18.81;53.46;102253.97;5063470;28;20071;-64
2023/06/06 01:52:36;;;;;;;0.10;0.10;;;;;;;18.48;54.20;102255.78;5063679;28;20094;-66
2023/06/06 01:55:03;;;;;;;0.20;0.20;;;;;;;18.69;53.07;102255.91;5055703;28;20029;-64
2023/06/06 01:57:29;;;;;;;0.10;0.10;;;;;;;18.88;52.29;102257.38;5054946;28;20040;-65
2023/06/06 01:59:54;;;;;;;0.17;0.17;;;;;;;19.18;52.37;102251.63;5067519;28;20037;-64
2023/06/06 02:02:20;;;;;;;0.10;0.10;;;;;;;19.43;51.70;102260.22;5062108;28;20037;-64
2023/06/06 02:04:45;;;;;;;0.10;0.10;;;;;;;18.81;53.05;102255.88;5057495;28;20389;-64
2023/06/06 02:07:12;;;;;;;0.10;0.10;;;;;;;18.77;53.03;102255.53;5068674;28;20024;-64
2023/06/06 02:09:37;;;;;;;0.10;0.10;;;;;;;19.35;51.65;102263.38;5055553;28;20036;-64
2023/06/06 02:12:03;;;;;;;0.10;0.10;;;;;;;19.09;51.99;102259.38;5062790;28;20036;-64
2023/06/06 02:14:28;;;;;;;0.20;0.20;;;;;;;19.37;51.36;102257.66;5063050;28;20037;-64
2023/06/06 02:16:54;;;;;;;0.13;0.13;;;;;;;19.26;52.10;102251.22;5056153;28;20036;-63
2023/06/06 02:19:19;;;;;;;0.20;0.20;;;;;;;19.15;52.14;102252.09;5068472;28;20037;-66
2023/06/06 02:21:47;;;;;;;0.10;0.10;;;;;;;19.38;50.81;102251.94;5056638;28;20068;-64
2023/06/06 02:24:12;;;;;;;0.13;0.13;;;;;;;19.27;50.99;102250.13;5077340;28;20089;-65
2023/06/06 02:26:42;;;;;;;0.10;0.10;;;;;;;18.66;53.71;102261.03;5064190;28;20060;-64
2023/06/06 02:29:07;;;;;;;0.20;0.20;;;;;;;18.79;52.90;102258.03;5053770;28;20061;-64
2023/06/06 02:31:36;;;;;;;0.20;0.20;;;;;;;19.18;52.10;102259.78;5055056;28;20121;-64
2023/06/06 02:34:04;;;;;;;0.20;0.20;;;;;;;18.66;52.90;102259.16;5063439;28;20060;-64
2023/06/06 02:36:31;;;;;;;0.10;0.10;;;;;;;19.30;51.62;102253.16;5062673;28;20069;-65
2023/06/06 02:38:57;;;;;;;0.20;0.20;;;;;;;19.22;51.86;102252.78;5055365;28;20037;-65
2023/06/06 02:41:23;;;;;;;0.10;0.10;;;;;;;19.08;52.07;102260.47;5067345;28;20037;-65
2023/06/06 02:43:48;;;;;;;0.13;0.13;;;;;;;18.88;52.17;102245.66;5057009;28;20070;-63
2023/06/06 02:46:14;;;;;;;0.10;0.10;;;;;;;18.95;52.73;102238.97;5061166;28;20024;-63
2023/06/06 02:48:39;;;;;;;0.20;0.20;;;;;;;18.42;53.93;102252.09;5063890;28;20484;-65
2023/06/06 02:51:04;;;;;;;0.17;0.17;;;;;;;18.10;55.94;102245.50;5054011;28;20457;-63
2023/06/06 02:53:32;;;;;;;0.20;0.20;;;;;;;18.38;53.95;102243.59;5066838;28;20040;-64
2023/06/06 02:55:58;;;;;;;0.20;0.20;;;;;;;18.59;53.53;102244.03;5047709;28;20102;-64
2023/06/06 02:58:28;;;;;;;0.10;0.10;;;;;;;19.12;51.94;102242.50;5061509;28;20505;-65
2023/06/06 03:00:57;;;;;;;0.15;0.15;;;;;;;19.45;50.98;102241.72;5070912;28;20103;-64
2023/06/06 03:03:23;;;;;;;0.20;0.20;;;;;;;18.88;52.07;102235.59;5053981;28;20393;-65
2023/06/06 03:05:51;;;;;;;0.13;0.13;;;;;;;18.42;54.35;102241.22;5064259;28;20041;-63
2023/06/06 03:08:17;;;;;;;0.10;0.10;;;;;;;18.54;53.41;102243.91;5032561;28;20551;-64
2023/06/06 03:10:45;;;;;;;0.20;0.20;;;;;;;18.29;54.31;102239.63;5064062;28;20059;-64
2023/06/06 03:13:10;;;;;;;0.10;0.10;;;;;;;17.79;56.10;102245.91;5068957;28;20048;-64
2023/06/06 03:15:36;;;;;;;0.20;0.20;;;;;;;17.86;55.65;102247.44;5065694;28;20082;-62
2023/06/06 03:18:01;;;;;;;0.17;0.17;;;;;;;18.02;54.76;102245.84;5057924;28;20024;-63
2023/06/06 03:20:30;;;;;;;0.10;0.10;;;;;;;17.54;58.01;102246.97;5058574;28;20044;-64
2023/06/06 03:22:56;;;;;;;0.15;0.15;;;;;;;18.76;53.52;102247.59;5065371;28;20029;-64
2023/06/06 03:25:24;;;;;;;0.20;0.20;;;;;;;18.19;55.37;102263.06;5053973;28;20060;-65
2023/06/06 03:27:50;;;;;;;0.10;0.10;;;;;;;17.48;56.82;102260.66;5064017;28;20049;-64
2023/06/06 03:30:15;;;;;;;0.10;0.10;;;;;;;18.51;54.18;102256.16;5050070;28;20029;-66
2023/06/06 03:32:42;;;;;;;0.30;0.30;;;;;;;18.41;54.24;102247.75;5049962;28;20508;-64
2023/06/06 03:35:07;;;;;;;0.15;0.15;;;;;;;18.70;53.51;102248.59;5066885;28;20056;-63
2023/06/06 03:37:32;;;;;;;0.10;0.10;;;;;;;17.93;55.44;102253.56;5053868;28;20048;-65
2023/06/06 03:39:58;;;;;;;0.20;0.20;;;;;;;18.55;53.75;102251.88;5063078;28;20025;-65
2023/06/06 03:42:23;;;;;;;0.20;0.20;;;;;;;18.18;54.92;102256.78;5014796;28;20584;-63
2023/06/06 03:44:48;;;;;;;0.20;0.20;;;;;;;18.00;55.43;102250.72;5029961;28;20111;-64
2023/06/06 03:47:14;;;;;;;0.20;0.20;;;;;;;17.24;58.47;102256.25;5037053;28;20041;-65
2023/06/06 03:49:39;;;;;;;0.13;0.13;;;;;;;18.09;56.32;102250.09;5049914;28;21645;-63
2023/06/06 03:52:05;;;;;;;0.10;0.10;;;;;;;17.32;58.13;102254.03;5050644;28;20457;-65
2023/06/06 03:54:31;;;;;;;0.10;0.10;;;;;;;17.53;58.07;102258.09;5049479;28;20496;-65
2023/06/06 03:56:57;;;;;;;0.10;0.10;;;;;;;17.37;58.27;102250.63;5049785;28;20029;-65
2023/06/06 03:59:22;;;;;;;0.10;0.10;;;;;;;17.99;55.76;102255.31;5050826;28;20044;-64
2023/06/06 04:01:48;;;;;;;0.10;0.10;;;;;;;17.85;56.88;102256.63;5047934;28;20033;-66
2023/06/06 04:04:15;;;;;;;0.20;0.20;;;;;;;17.94;56.38;102247.06;5050235;28;20032;-64
2023/06/06 04:06:41;;;;;;;0.20;0.20;;;;;;;18.26;55.56;102253.69;5049407;28;20067;-67
2023/06/06 04:09:10;;;;;;;0.15;0.15;;;;;;;18.58;54.74;102250.53;5046236;28;20037;-66
2023/06/06 04:11:36;;;;;;;0.20;0.20;;;;;;;18.48;54.15;102247.63;5053713;28;20036;-64
2023/06/06 04:14:02;;;;;;;0.10;0.10;;;;;;;18.75;54.23;102252.22;5066186;28;20476;-64
2023/06/06 04:16:27;;;;;;;0.17;0.17;;;;;;;18.81;54.21;102253.97;5068673;28;20669;-64
2023/06/06 04:18:52;;;;;;;0.20;0.20;;;;;;;18.05;56.38;102248.91;5055217;28;20036;-63
2023/06/06 04:21:19;;;;;;;0.10;0.10;;;;;;;18.30;55.95;102257.59;5065694;28;20044;-63
2023/06/06 04:23:45;;;;;;;0.20;0.20;;;;;;;18.03;56.66;102256.50;5054859;28;20036;-65
2023/06/06 04:26:25;;;;;;;0.20;0.20;;;;;;;18.32;55.50;102260.91;5060177;28;20120;-65
2023/06/06 04:28:53;;;;;;;0.20;0.20;;;;;;;18.66;54.56;102252.88;5063547;28;20055;-65
2023/06/06 04:31:23;;;;;;;0.10;0.10;;;;;;;18.68;54.70;102253.44;5053168;28;20025;-64
2023/06/06 04:33:54;;;;;;;0.10;0.10;;;;;;;18.78;54.14;102256.34;5068136;28;20129;-64
2023/06/06 04:36:21;;;;;;;0.17;0.17;;;;;;;19.00;53.39;102258.13;5062722;28;20539;-64
2023/06/06 04:38:49;;;;;;;0.20;0.20;;;;;;;18.75;54.68;102267.75;5067570;28;20557;-65
2023/06/06 04:41:15;;;;;;;0.20;0.20;;;;;;;19.50;52.00;102251.88;5056706;28;20807;-65
2023/06/06 04:43:42;;;;;;;0.20;0.20;;;;;;;18.52;55.23;102265.94;5067922;28;20037;-65
2023/06/06 04:46:08;;;;;;;0.17;0.17;;;;;;;19.47;52.79;102255.94;5062646;28;20022;-63
2023/06/06 04:48:33;;;;;;;0.15;0.15;;;;;;;19.27;53.08;102259.13;5060523;28;20025;-65
2023/06/06 04:50:59;;;;;;;0.10;0.10;;;;;;;19.49;52.82;102253.78;5068740;28;20766;-63
2023/06/06 04:53:25;;;;;;;0.10;0.10;;;;;;;18.19;56.53;102261.19;5056321;28;20135;-64
2023/06/06 04:55:52;;;;;;;0.20;0.20;;;;;;;18.23;56.10;102258.81;5053753;28;20108;-63
2023/06/06 04:58:19;;;;;;;0.15;0.15;;;;;;;18.07;56.89;102259.56;5035326;28;20045;-64
2023/06/06 05:00:46;;;;;;;0.20;0.20;;;;;;;18.54;56.06;102252.91;5067989;28;20483;-65
2023/06/06 05:03:16;;;;;;;0.10;0.10;;;;;;;19.20;54.12;102254.94;5056100;28;20029;-66
2023/06/06 05:05:41;;;;;;;0.10;0.10;;;;;;;19.23;54.39;102248.97;5048975;28;20095;-65
2023/06/06 05:08:06;;;;;;;0.20;0.20;;;;;;;19.29;53.52;102253.44;5061216;28;20032;-64
2023/06/06 05:10:32;;;;;;;0.20;0.20;;;;;;;18.72;55.72;102258.16;5060522;28;20032;-64
2023/06/06 05:12:57;;;;;;;0.20;0.20;;;;;;;19.11;54.05;102257.22;5068939;28;20361;-63
2023/06/06 05:15:23;;;;;;;0.20;0.20;;;;;;;19.93;51.66;102250.03;5059793;28;20033;-66
2023/06/06 05:17:57;;;;;;;0.10;0.10;;;;;;;19.33;55.04;102256.50;5063941;28;20480;-65
2023/06/06 05:20:26;;;;;;;0.20;0.20;;;;;;;19.54;52.77;102255.72;5072487;28;20037;-64
2023/06/06 05:22:51;;;;;;;0.10;0.10;;;;;;;19.84;52.60;102259.75;5057243;28;20040;-63
2023/06/06 05:25:17;;;;;;;0.20;0.20;;;;;;;20.15;51.34;102256.31;5069735;28;20020;-63
2023/06/06 05:27:42;;;;;;;0.20;0.20;;;;;;;20.11;51.89;102257.09;5057375;28;20051;-64
2023/06/06 05:30:09;;;;;;;0.10;0.10;;;;;;;20.14;51.66;102256.59;5063223;28;20029;-64
2023/06/06 05:32:35;;;;;;;0.20;0.20;;;;;;;20.63;49.90;102261.00;5064565;28;20037;-64
2023/06/06 05:35:01;;;;;;;0.10;0.10;;;;;;;19.20;54.06;102263.91;5037842;28;20505;-64
2023/06/06 05:37:28;;;;;;;0.10;0.10;;;;;;;19.66;52.67;102260.03;5068424;28;20070;-64
2023/06/06 05:39:53;;;;;;;0.20;0.20;;;;;;;19.67;53.77;102258.97;5059234;28;20020;-64
2023/06/06 05:42:19;;;;;;;0.13;0.13;;;;;;;19.49;53.89;102261.97;5062956;28;20040;-64
2023/06/06 05:44:44;;;;;;;0.10;0.10;;;;;;;20.34;52.03;102256.03;5057985;28;20040;-64
2023/06/06 05:47:10;;;;;;;0.20;0.20;;;;;;;20.40;52.06;102266.75;5068181;28;20040;-63
2023/06/06 05:49:35;;;;;;;0.20;0.20;;;;;;;20.15;52.49;102264.50;5056107;28;20027;-67
2023/06/06 05:52:04;;;;;;;0.00;0.00;;;;;;;19.25;54.80;102264.00;5061454;28;20020;-63
2023/06/06 05:54:29;;;;;;;0.20;0.20;;;;;;;20.11;52.87;102268.00;5059561;28;20040;-64
2023/06/06 05:56:56;;;;;;;0.20;0.20;;;;;;;21.10;50.26;102261.22;5066716;28;20036;-64
2023/06/06 05:59:21;;;;;;;0.10;0.10;;;;;;;19.57;54.33;102266.16;5052977;28;20114;-63
2023/06/06 06:01:49;;;;;;;0.10;0.10;;;;;;;20.80;51.58;102267.19;5060030;28;20063;-64
2023/06/06 06:04:16;;;;;;;0.10;0.10;;;;;;;20.19;52.94;102266.75;5064731;28;20423;-64
2023/06/06 06:06:46;;;;;;;0.10;0.10;;;;;;;20.00;53.58;102269.78;5059032;28;20041;-63
2023/06/06 06:09:11;;;;;;;0.13;0.13;;;;;;;20.74;50.71;102264.66;5069203;28;20040;-63
2023/06/06 06:11:37;;;;;;;0.10;0.10;;;;;;;20.05;53.47;102266.28;5056043;28;20461;-63
2023/06/06 06:14:02;;;;;;;0.10;0.10;;;;;;;20.86;50.60;102263.44;5045220;28;20521;-64
2023/06/06 06:16:28;;;;;;;0.10;0.10;;;;;;;21.13;50.16;102263.41;5051461;28;20078;-63
2023/06/06 06:18:53;;;;;;;0.10;0.10;;;;;;;21.19;50.02;102262.38;5059512;28;20495;-64
2023/06/06 06:21:19;;;;;;;0.20;0.20;;;;;;;21.36;49.45;102256.78;5061006;28;20509;-64
2023/06/06 06:23:45;;;;;;;0.10;0.10;;;;;;;21.70;48.76;102261.66;5047815;28;20029;-63
2023/06/06 06:26:10;;;;;;;0.10;0.10;;;;;;;20.35;52.16;102260.41;5037029;28;20029;-63
2023/06/06 06:28:36;;;;;;;0.10;0.10;;;;;;;20.16;53.67;102268.06;5032627;28;20053;-64
2023/06/06 06:31:01;;;;;;;0.20;0.20;;;;;;;21.11;51.47;102264.78;5051119;28;20105;-65
2023/06/06 06:33:27;;;;;;;0.10;0.10;;;;;;;20.24;53.47;102266.84;5050656;28;20090;-65
2023/06/06 06:35:52;;;;;;;0.10;0.10;;;;;;;21.69;49.65;102268.22;5050683;28;20404;-65
2023/06/06 06:38:18;;;;;;;0.10;0.10;;;;;;;21.50;49.61;102264.25;5051004;28;20033;-64
2023/06/06 06:40:43;;;;;;;0.10;0.10;;;;;;;20.65;52.01;102272.50;5053243;28;20036;-64
2023/06/06 06:43:09;;;;;;;0.10;0.10;;;;;;;21.98;47.40;102265.94;5029642;28;20033;-64
2023/06/06 06:45:34;;;;;;;0.17;0.17;;;;;;;22.37;47.52;102267.19;5050597;28;20040;-64
2023/06/06 06:48:01;;;;;;;0.20;0.20;;;;;;;20.46;53.39;102268.44;5050311;28;20069;-65
2023/06/06 06:50:27;;;;;;;0.20;0.20;;;;;;;20.94;52.45;102268.44;5050605;28;20524;-64
2023/06/06 06:52:56;;;;;;;0.10;0.10;;;;;;;21.21;51.50;102265.66;5050460;28;20491;-64
2023/06/06 06:55:23;;;;;;;0.13;0.13;;;;;;;22.12;48.48;102264.38;5050299;28;20055;-64
2023/06/06 06:57:50;;;;;;;0.20;0.20;;;;;;;21.46;49.75;102265.06;5068366;28;20024;-66
2023/06/06 07:00:18;;;;;;;0.10;0.10;;;;;;;21.69;49.49;102267.38;5035711;28;20037;-63
2023/06/06 07:02:47;;;;;;;0.10;0.10;;;;;;;21.22;50.95;102272.81;5030373;28;20034;-65
2023/06/06 07:05:14;;;;;;;0.10;0.10;;;;;;;21.80;49.47;102275.41;5036800;28;20025;-64
2023/06/06 07:07:45;;;;;;;0.15;0.15;;;;;;;21.96;49.57;102265.38;5049812;28;20013;-64
2023/06/06 07:10:13;;;;;;;0.10;0.10;;;;;;;22.64;47.42;102270.59;5027952;28;20040;-64
2023/06/06 07:12:38;;;;;;;0.10;0.10;;;;;;;22.67;47.52;102261.84;5030238;28;20034;-65
2023/06/06 07:15:04;;;;;;;0.10;0.10;;;;;;;22.89;46.41;102264.34;5029477;28;20036;-65
2023/06/06 07:17:30;;;;;;;0.10;0.10;;;;;;;22.49;47.22;102259.56;5029812;28;20029;-65
2023/06/06 07:19:55;;;;;;;0.20;0.20;;;;;;;22.62;47.48;102271.97;5029738;28;20509;-64
2023/06/06 07:22:20;;;;;;;0.10;0.10;;;;;;;21.91;49.60;102267.28;5029364;28;20037;-64
2023/06/06 07:24:46;;;;;;;0.20;0.20;;;;;;;22.59;46.86;102264.28;5052539;28;20445;-64
2023/06/06 07:27:13;;;;;;;0.10;0.10;;;;;;;22.76;46.92;102266.78;5033822;28;20052;-66
2023/06/06 07:29:38;;;;;;;0.10;0.10;;;;;;;23.73;44.63;102258.25;5052098;28;20029;-65
2023/06/06 07:32:04;;;;;;;0.10;0.10;;;;;;;24.04;43.19;102257.09;5046237;28;20041;-63
2023/06/06 07:34:30;;;;;;;0.10;0.10;;;;;;;23.96;43.50;102263.94;5030973;28;20028;-65
2023/06/06 07:36:55;;;;;;;0.10;0.10;;;;;;;23.34;44.81;102266.28;5049903;28;20035;-65
2023/06/06 07:39:20;;;;;;;0.10;0.10;;;;;;;24.02;43.13;102260.13;5049433;28;20051;-65
2023/06/06 07:41:46;;;;;;;0.10;0.10;;;;;;;24.27;43.35;102257.25;5037531;28;20040;-65
2023/06/06 07:44:11;;;;;;;0.10;0.10;;;;;;;24.58;41.52;102260.69;5029352;28;20207;-65
2023/06/06 07:46:37;;;;;;;0.10;0.10;;;;;;;24.17;43.42;102267.50;5028828;28;20509;-64
2023/06/06 07:49:02;;;;;;;0.10;0.10;;;;;;;24.18;42.77;102258.97;5011739;28;20041;-62
2023/06/06 07:51:28;;;;;;;0.20;0.20;;;;;;;23.69;44.45;102258.00;5046610;28;20029;-62
2023/06/06 07:53:54;;;;;;;0.10;0.10;;;;;;;24.21;42.60;102252.91;5048870;28;20036;-62
2023/06/06 07:56:21;;;;;;;0.10;0.10;;;;;;;24.67;41.93;102253.47;5048870;28;20048;-62
2023/06/06 07:58:51;;;;;;;0.10;0.10;;;;;;;23.18;45.56;102256.38;5048321;28;20041;-63
2023/06/06 08:01:19;;;;;;;0.10;0.10;;;;;;;24.81;42.22;102251.75;5048086;28;20781;-62
2023/06/06 08:03:45;;;;;;;0.10;0.10;;;;;;;25.13;41.34;102253.97;5047907;28;20033;-61
2023/06/06 08:06:11;;;;;;;0.10;0.10;;;;;;;25.69;40.35;102259.81;5047722;28;20036;-62
2023/06/06 08:08:38;;;;;;;0.10;0.10;;;;;;;24.81;42.46;102251.75;5048831;28;20036;-61
2023/06/06 08:11:04;;;;;;;0.10;0.10;;;;;;;23.22;46.70;102252.81;5051623;28;20498;-62
2023/06/06 08:13:29;;;;;;;0.10;0.10;;;;;;;24.48;42.94;102244.25;5051196;28;20029;-61
2023/06/06 08:15:55;;;;;;;0.10;0.10;;;;;;;25.67;40.31;102249.06;5051532;28;20013;-62
2023/06/06 08:18:20;;;;;;;0.03;0.03;;;;;;;25.56;40.79;102246.72;5051780;28;20045;-62
2023/06/06 08:20:45;;;;;;;0.10;0.10;;;;;;;24.24;43.10;102240.53;5051731;28;20032;-61
2023/06/06 08:23:11;;;;;;;0.10;0.10;;;;;;;25.31;41.27;102250.53;5051308;28;20884;-61
2023/06/06 08:25:39;;;;;;;0.10;0.10;;;;;;;24.33;44.72;102247.88;5052084;28;20040;-61
2023/06/06 08:28:05;;;;;;;0.10;0.10;;;;;;;23.98;44.57;102237.03;5034188;28;20483;-62
2023/06/06 08:30:30;;;;;;;0.00;0.00;;;;;;;25.92;39.99;102239.72;5052050;28;20067;-63
2023/06/06 08:32:56;;;;;;;0.10;0.10;;;;;;;25.57;40.48;102240.13;5052232;28;20039;-62
2023/06/06 08:35:22;;;;;;;0.00;0.00;;;;;;;24.61;43.36;102240.06;5052210;28;20052;-61
2023/06/06 08:37:47;;;;;;;0.08;0.08;;;;;;;26.41;38.65;102239.38;5051966;28;20440;-62
2023/06/06 08:40:13;;;;;;;0.10;0.10;;;;;;;26.91;37.83;102238.63;5052243;28;20032;-63
2023/06/06 08:42:44;;;;;;;0.00;0.00;;;;;;;25.87;40.23;102237.84;5051606;28;20045;-64
2023/06/06 08:45:10;;;;;;;0.10;0.10;;;;;;;26.44;38.62;102224.97;5035109;28;20033;-64
2023/06/06 08:47:36;;;;;;;0.10;0.10;;;;;;;26.50;38.17;102237.56;5051874;28;20025;-63
2023/06/06 08:50:04;;;;;;;0.00;0.00;;;;;;;27.01;38.24;102234.91;5043134;28;20037;-64
2023/06/06 08:52:32;;;;;;;0.00;0.00;;;;;;;26.83;38.12;102228.25;5034680;28;20054;-65
2023/06/06 08:54:58;;;;;;;0.10;0.10;;;;;;;27.53;36.63;102226.25;5064251;28;20176;-67
2023/06/06 08:57:25;;;;;;;0.10;0.10;;;;;;;25.99;38.83;102232.72;5060453;28;20470;-64
2023/06/06 08:59:51;;;;;;;0.10;0.10;;;;;;;27.51;36.79;102222.97;5039803;28;20037;-65
2023/06/06 09:02:17;;;;;;;0.08;0.08;;;;;;;26.59;38.23;102225.59;5032541;28;20044;-65
2023/06/06 09:04:43;;;;;;;0.05;0.05;;;;;;;25.45;40.49;102232.25;5035288;28;20037;-63
2023/06/06 09:07:12;;;;;;;0.05;0.05;;;;;;;26.13;39.75;102226.53;5052468;28;20021;-63
2023/06/06 09:09:40;;;;;;;0.00;0.00;;;;;;;26.93;38.32;102220.66;5052364;28;20157;-64
2023/06/06 09:12:07;;;;;;;0.00;0.00;;;;;;;26.34;38.93;102227.91;5052106;28;20032;-64
2023/06/06 09:14:32;;;;;;;0.00;0.00;;;;;;;26.54;38.29;102228.41;5052339;28;20025;-64
2023/06/06 09:16:58;;;;;;;0.00;0.00;;;;;;;27.16;38.05;102223.59;5052415;28;20047;-64
2023/06/06 09:19:25;;;;;;;0.00;0.00;;;;;;;26.59;38.66;102227.53;5033474;28;20037;-63
2023/06/06 09:21:51;;;;;;;0.00;0.00;;;;;;;26.98;37.16;102230.78;5047816;28;20024;-64
2023/06/06 09:24:17;;;;;;;0.00;0.00;;;;;;;27.06;37.33;102218.25;5042700;28;20544;-65
2023/06/06 09:26:42;;;;;;;0.00;0.00;;;;;;;27.40;36.53;102219.56;5044800;28;20029;-64
2023/06/06 09:29:08;;;;;;;0.00;0.00;;;;;;;26.42;38.69;102229.97;5043774;28;20041;-65
2023/06/06 09:31:37;;;;;;;0.00;0.00;;;;;;;27.53;36.59;102227.06;5052529;28;20021;-64
2023/06/06 09:34:04;;;;;;;0.00;0.00;;;;;;;26.70;38.40;102226.25;5045924;28;20417;-65
2023/06/06 09:36:31;;;;;;;0.00;0.00;;;;;;;27.09;37.40;102223.97;5053087;28;20037;-63
2023/06/06 09:39:13;;;;;;;0.00;0.00;;;;;;;27.29;37.19;102222.78;5057800;28;20036;-64
2023/06/06 09:41:45;;;;;;;0.00;0.00;;;;;;;27.05;37.91;102219.34;5058790;28;20033;-63
2023/06/06 09:44:30;;;;;;;0.00;0.00;;;;;;;28.83;34.41;102221.78;5060404;28;20032;-63
2023/06/06 09:47:03;;;;;;;0.00;0.00;;;;;;;28.77;33.64;102225.81;5061425;28;20037;-63
2023/06/06 09:49:35;;;;;;;0.00;0.00;;;;;;;28.65;33.53;102212.53;5060740;28;20032;-64
2023/06/06 09:52:02;;;;;;;0.00;0.00;;;;;;;27.34;35.83;102220.78;5059610;28;20019;-64
2023/06/06 09:54:28;;;;;;;0.00;0.00;;;;;;;27.20;36.77;102205.31;5061342;28;20033;-63
2023/06/06 09:56:55;;;;;;;0.00;0.00;;;;;;;27.80;36.10;102209.69;5054431;28;20025;-64
2023/06/06 09:59:25;;;;;;;0.00;0.00;;;;;;;26.98;37.37;102214.25;5051515;28;20132;-64
2023/06/06 10:01:56;;;;;;;0.00;0.00;;;;;;;27.46;37.22;102203.75;5049942;28;20052;-65
2023/06/06 10:04:23;;;;;;;0.00;0.00;;;;;;;27.55;36.71;102201.91;5057538;28;20028;-64
2023/06/06 10:06:50;;;;;;;0.00;0.00;;;;;;;28.87;34.30;102206.19;5061728;28;20112;-64
2023/06/06 10:09:16;;;;;;;0.00;0.00;;;;;;;29.13;32.72;102205.25;5061534;28;20473;-65
2023/06/06 10:11:42;;;;;;;0.00;0.00;;;;;;;28.82;33.76;102201.59;5042472;28;20102;-64
2023/06/06 10:14:09;;;;;;;0.00;0.00;;;;;;;29.53;32.67;102203.34;5060270;28;20601;-67
2023/06/06 10:16:38;;;;;;;0.00;0.00;;;;;;;28.90;34.00;102200.00;5055973;28;20075;-63
2023/06/06 10:19:07;;;;;;;0.00;0.00;;;;;;;27.72;35.39;102197.41;5043997;28;20396;-64
2023/06/06 10:21:35;;;;;;;0.00;0.00;;;;;;;29.88;32.38;102209.84;4979652;28;20457;-63
2023/06/06 10:24:01;;;;;;;0.00;0.00;;;;;;;29.27;32.40;102202.38;5040799;28;20033;-63
2023/06/06 10:26:37;;;;;;;0.00;0.00;;;;;;;28.98;33.86;102196.50;5047929;28;20481;-64
2023/06/06 10:29:14;;;;;;;0.00;0.00;;;;;;;29.15;33.25;102193.88;5029409;28;20032;-64
2023/06/06 10:31:52;;;;;;;0.00;0.00;;;;;;;29.48;32.99;102190.44;5046669;28;20025;-63
2023/06/06 10:34:22;;;;;;;0.00;0.00;;;;;;;29.23;32.80;102188.38;5047285;28;20058;-63
2023/06/06 10:36:47;;;;;;;0.00;0.00;;;;;;;28.63;33.00;102195.44;5048021;28;20123;-63
2023/06/06 10:39:20;;;;;;;0.00;0.00;;;;;;;29.97;32.26;102186.56;5047250;28;20029;-63
2023/06/06 10:42:06;;;;;;;0.00;0.00;;;;;;;29.02;33.47;102180.88;5046393;28;20045;-64
2023/06/06 10:44:37;;;;;;;0.00;0.00;;;;;;;28.57;35.07;102180.91;5061185;28;20041;-64
2023/06/06 10:47:21;;;;;;;0.00;0.00;;;;;;;30.30;31.81;102185.00;5045128;28;20032;-63
2023/06/06 10:50:09;;;;;;;0.10;0.00;;;;;;;29.57;33.25;102187.72;5047457;28;20769;-65
2023/06/06 10:52:59;;;;;;;0.00;0.00;;;;;;;29.28;32.88;102181.88;5046714;28;20076;-65
2023/06/06 10:55:24;;;;;;;0.00;0.00;;;;;;;29.64;32.26;102182.50;5044326;28;20111;-64
2023/06/06 10:58:13;;;;;;;0.00;0.00;;;;;;;31.04;31.40;102174.50;5047052;28;20517;-63
2023/06/06 11:00:43;;;;;;;0.00;0.00;;;;;;;30.94;29.30;102180.41;5046585;28;20060;-62
2023/06/06 11:03:09;;;;;;;;;;;;;;;31.67;29.25;102167.25;5053883;28;20382;-66
2023/06/06 11:06:00;;;;;;;0.00;0.00;;;;;;;32.26;28.18;102177.19;5046333;28;19916;-66
2023/06/06 11:08:42;;;;;;;0.00;0.00;;;;;;;31.13;29.85;102180.03;5033592;28;20042;-65
2023/06/06 11:11:17;;;;;;;0.00;0.00;;;;;;;30.31;31.17;102178.31;5033920;28;20401;-64
2023/06/06 11:13:53;;;;;;;0.00;0.00;;;;;;;30.09;31.30;102174.84;5034301;28;20037;-64
2023/06/06 11:16:39;;;;;;;0.00;0.00;;;;;;;30.70;31.06;102174.53;5025934;28;20021;-65
2023/06/06 11:19:08;;;;;;;0.00;0.00;;;;;;;31.30;29.99;102168.88;5033410;28;20516;-65
2023/06/06 11:21:37;;;;;;;0.00;0.00;;;;;;;32.06;28.79;102168.84;5034681;28;20064;-64
2023/06/06 11:24:06;;;;;;;0.00;0.00;;;;;;;31.43;30.36;102167.06;5045486;28;20053;-64
2023/06/06 11:26:35;;;;;;;0.00;0.00;;;;;;;30.57;29.87;102177.47;5055721;28;20377;-64